Time;durP1;ratioP1;P1;durP2;ratioP2;P2;SDS_P1;SDS_P2;PMS_P1;PMS_P2;Temp;Humidity;BMP_temperature;BMP_pressure;BME280_temperature;BME280_humidity;BME280_pressure;Samples;Min_cycle;Max_cycle;Signal;HPM_P1;HPM_P2
2022/10/11 00:01:59;;;;;;;10.75;5.10;;;;;;;12.26;95.43;96702.06;5079131;28;20136;-76
2022/10/11 00:04:26;;;;;;;12.85;4.90;;;;;;;12.29;95.49;96706.09;5072195;28;20044;-75
2022/10/11 00:06:52;;;;;;;9.38;4.45;;;;;;;12.29;95.40;96711.56;5085883;28;20048;-75
2022/10/11 00:09:19;;;;;;;11.18;5.38;;;;;;;12.31;95.48;96709.31;5071342;28;20078;-75
2022/10/11 00:11:45;;;;;;;8.60;4.68;;;;;;;12.31;95.50;96709.31;5070451;28;20048;-75
2022/10/11 00:14:13;;;;;;;12.77;5.38;;;;;;;12.34;95.37;96714.13;5088507;28;20044;-76
2022/10/11 00:16:43;;;;;;;11.93;4.78;;;;;;;12.33;95.54;96723.47;5091517;28;20091;-75
2022/10/11 00:19:10;;;;;;;10.20;4.53;;;;;;;12.34;95.58;96732.44;5072070;28;20051;-76
2022/10/11 00:21:36;;;;;;;8.70;4.28;;;;;;;12.36;95.97;96727.47;5069893;28;20076;-75
2022/10/11 00:24:04;;;;;;;11.80;5.07;;;;;;;12.36;96.17;96732.91;5087121;28;20048;-76
2022/10/11 00:26:30;;;;;;;8.82;4.22;;;;;;;12.38;96.40;96736.16;5092695;28;20273;-75
2022/10/11 00:28:57;;;;;;;12.15;4.55;;;;;;;12.37;96.48;96742.72;5094316;28;20043;-75
2022/10/11 00:31:25;;;;;;;9.77;4.43;;;;;;;12.46;96.58;96743.53;5093489;28;20040;-75
2022/10/11 00:33:52;;;;;;;8.63;4.88;;;;;;;12.43;96.80;96742.25;5094959;28;20072;-75
2022/10/11 00:36:19;;;;;;;13.77;5.25;;;;;;;12.49;96.76;96748.38;5090610;28;20048;-75
2022/10/11 00:38:46;;;;;;;9.90;4.85;;;;;;;12.52;97.28;96744.97;5079783;28;20051;-75
2022/10/11 00:41:13;;;;;;;12.55;5.82;;;;;;;12.54;97.55;96748.22;5073171;28;20067;-76
2022/10/11 00:43:40;;;;;;;16.35;6.28;;;;;;;12.47;98.17;96750.59;5073910;28;20044;-75
2022/10/11 00:46:27;;;;;;;13.88;6.18;;;;;;;12.50;98.38;96745.31;5073371;28;20049;-75
2022/10/11 00:48:58;;;;;;;11.20;5.60;;;;;;;12.49;98.74;96762.03;5073888;28;20052;-75
2022/10/11 00:51:40;;;;;;;14.27;5.80;;;;;;;12.56;98.68;96751.41;5072750;28;20075;-75
2022/10/11 00:54:10;;;;;;;12.63;6.47;;;;;;;12.53;98.77;96749.34;5090269;28;20044;-75
2022/10/11 00:56:38;;;;;;;11.45;6.82;;;;;;;12.51;98.79;96751.56;5093481;28;20048;-75
2022/10/11 00:59:10;;;;;;;10.68;6.30;;;;;;;12.58;98.79;96748.34;5093428;28;20059;-75
2022/10/11 01:01:38;;;;;;;18.13;6.97;;;;;;;12.57;98.91;96753.00;5093373;28;20048;-76
2022/10/11 01:04:07;;;;;;;15.27;6.70;;;;;;;12.55;98.92;96758.00;5093245;28;20054;-76
2022/10/11 01:06:34;;;;;;;13.20;6.30;;;;;;;12.54;99.70;96756.41;5092867;28;20131;-76
2022/10/11 01:09:01;;;;;;;12.10;6.47;;;;;;;12.50;99.86;96767.16;5093401;28;20067;-76
2022/10/11 01:11:30;;;;;;;12.75;6.13;;;;;;;12.60;99.82;96763.31;5092261;28;20048;-76
2022/10/11 01:14:12;;;;;;;13.95;6.25;;;;;;;12.68;99.17;96767.97;5093406;28;20044;-76
2022/10/11 01:16:52;;;;;;;17.75;7.65;;;;;;;12.58;100.00;96768.31;5088759;28;20400;-75
2022/10/11 01:19:41;;;;;;;22.27;8.07;;;;;;;12.40;100.00;96774.84;5092920;28;20047;-76
2022/10/11 01:22:25;;;;;;;21.58;8.35;;;;;;;12.23;100.00;96779.19;5091892;28;20406;-75
2022/10/11 01:25:14;;;;;;;17.95;7.50;;;;;;;12.24;100.00;96774.50;5093150;28;20048;-76
2022/10/11 01:27:53;;;;;;;16.08;7.20;;;;;;;12.23;100.00;96773.72;5093711;28;20059;-77
2022/10/11 01:30:28;;;;;;;21.15;10.30;;;;;;;12.24;100.00;96775.31;5093047;28;20047;-75
2022/10/11 01:33:07;;;;;;;17.90;9.95;;;;;;;12.16;100.00;96770.66;5093456;28;20044;-75
2022/10/11 01:35:40;;;;;;;18.45;10.23;;;;;;;12.17;100.00;96774.19;5073584;28;20074;-77
2022/10/11 01:38:13;;;;;;;20.23;9.57;;;;;;;12.20;100.00;96768.88;5073147;28;20409;-77
2022/10/11 01:40:45;;;;;;;19.85;9.02;;;;;;;12.19;100.00;96767.28;5075061;28;20036;-80
2022/10/11 01:43:13;;;;;;;19.00;9.40;;;;;;;12.19;100.00;96759.09;5073942;28;20052;-77
2022/10/11 01:45:42;;;;;;;17.95;9.02;;;;;;;12.23;100.00;96757.34;5074271;28;20055;-75
2022/10/11 01:48:10;;;;;;;21.30;10.20;;;;;;;12.25;100.00;96760.53;5072376;28;20040;-78
2022/10/11 01:50:41;;;;;;;18.23;9.70;;;;;;;12.23;100.00;96760.06;5073051;28;20044;-75
2022/10/11 01:53:41;;;;;;;25.83;11.30;;;;;;;11.88;100.00;96759.16;5072394;28;20507;-75
2022/10/11 01:56:22;;;;;;;22.52;12.40;;;;;;;11.85;100.00;96768.00;5059209;28;20040;-76
2022/10/11 01:59:02;;;;;;;23.70;12.05;;;;;;;11.82;100.00;96765.09;5072899;28;20044;-76
2022/10/11 02:01:37;;;;;;;22.45;11.05;;;;;;;11.93;100.00;96760.94;5072760;28;20064;-77
2022/10/11 02:04:12;;;;;;;21.33;10.52;;;;;;;12.03;100.00;96766.13;5072927;28;20093;-78
2022/10/11 02:06:47;;;;;;;23.45;11.30;;;;;;;12.00;100.00;96769.47;5073071;28;20064;-75
2022/10/11 02:09:21;;;;;;;27.45;12.02;;;;;;;11.89;100.00;96762.69;5072060;28;20044;-76
2022/10/11 02:11:47;;;;;;;22.58;11.70;;;;;;;11.95;100.00;96772.34;5073526;28;20053;-77
2022/10/11 02:14:18;;;;;;;19.75;11.32;;;;;;;11.96;100.00;96773.97;5072273;28;20049;-76
2022/10/11 02:16:52;;;;;;;24.15;11.57;;;;;;;11.84;100.00;96769.09;5073271;28;20063;-76
2022/10/11 02:19:23;;;;;;;22.10;11.93;;;;;;;11.79;100.00;96768.41;5074643;28;20044;-76
2022/10/11 02:21:54;;;;;;;25.08;11.30;;;;;;;11.73;100.00;96765.81;5093077;28;20058;-76
2022/10/11 02:24:26;;;;;;;21.63;11.40;;;;;;;11.83;100.00;96761.22;5082290;28;20047;-76
2022/10/11 02:26:55;;;;;;;23.83;12.18;;;;;;;11.93;100.00;96758.22;5072976;28;20045;-78
2022/10/11 02:29:24;;;;;;;20.45;11.40;;;;;;;11.91;100.00;96761.28;5071691;28;20055;-76
2022/10/11 02:31:54;;;;;;;23.65;11.13;;;;;;;11.91;100.00;96755.00;5072768;28;20043;-78
2022/10/11 02:34:25;;;;;;;20.90;10.82;;;;;;;11.99;100.00;96756.94;5072105;28;20055;-76
2022/10/11 02:36:59;;;;;;;19.17;10.25;;;;;;;12.05;100.00;96755.66;5071058;28;20118;-75
2022/10/11 02:39:31;;;;;;;21.48;11.35;;;;;;;12.03;100.00;96763.38;5072593;28;20577;-76
2022/10/11 02:42:02;;;;;;;19.40;10.95;;;;;;;12.09;100.00;96767.56;5079682;28;20055;-77
2022/10/11 02:44:33;;;;;;;21.30;10.32;;;;;;;12.14;100.00;96770.16;5092407;28;20507;-75
2022/10/11 02:47:02;;;;;;;16.60;10.20;;;;;;;12.17;100.00;96764.06;5092522;28;20511;-76
2022/10/11 02:49:30;;;;;;;18.27;10.35;;;;;;;12.13;100.00;96763.09;5072851;28;20385;-76
2022/10/11 02:51:56;;;;;;;17.13;9.13;;;;;;;12.19;100.00;96763.75;5073627;28;20416;-76
2022/10/11 02:54:23;;;;;;;18.30;10.07;;;;;;;12.24;100.00;96763.59;5072944;28;20036;-76
2022/10/11 02:56:50;;;;;;;18.52;10.32;;;;;;;12.23;100.00;96773.72;5073951;28;20520;-78
2022/10/11 02:59:16;;;;;;;15.25;9.20;;;;;;;12.26;100.00;96766.78;5083966;28;20052;-76
2022/10/11 03:01:43;;;;;;;14.73;9.10;;;;;;;12.26;100.00;96773.06;5084943;28;20067;-76
2022/10/11 03:04:11;;;;;;;13.52;9.07;;;;;;;12.27;100.00;96773.88;5083510;28;20047;-75
2022/10/11 03:06:38;;;;;;;17.17;10.02;;;;;;;12.30;100.00;96769.69;5074165;28;20419;-76
2022/10/11 03:09:04;;;;;;;16.02;9.10;;;;;;;12.32;100.00;96770.19;5073058;28;20080;-76
2022/10/11 03:11:31;;;;;;;19.13;9.65;;;;;;;12.35;100.00;96775.00;5073175;28;20037;-77
2022/10/11 03:13:58;;;;;;;19.33;9.90;;;;;;;12.35;100.00;96780.47;5072666;28;20049;-76
2022/10/11 03:16:24;;;;;;;21.95;10.10;;;;;;;12.25;100.00;96774.19;5078892;28;20051;-77
2022/10/11 03:18:51;;;;;;;15.75;9.85;;;;;;;12.30;100.00;96783.34;5094072;28;20050;-77
2022/10/11 03:21:19;;;;;;;20.63;11.38;;;;;;;12.23;100.00;96773.72;5092379;28;20544;-77
2022/10/11 03:23:45;;;;;;;26.23;12.25;;;;;;;12.22;100.00;96774.84;5094200;28;20403;-76
2022/10/11 03:26:12;;;;;;;17.40;10.10;;;;;;;12.30;100.00;96769.69;5093041;28;20523;-77
2022/10/11 03:28:38;;;;;;;17.42;9.40;;;;;;;12.34;100.00;96767.94;5093620;28;20506;-76
2022/10/11 03:31:05;;;;;;;14.35;8.90;;;;;;;12.36;100.00;96773.88;5092926;28;20048;-76
2022/10/11 03:33:32;;;;;;;12.93;9.05;;;;;;;12.37;100.00;96778.22;5089105;28;20052;-75
2022/10/11 03:35:58;;;;;;;17.45;9.32;;;;;;;12.40;100.00;96772.94;5073475;28;20418;-78
2022/10/11 03:38:26;;;;;;;20.88;10.38;;;;;;;12.42;100.00;96778.06;5072991;28;20048;-76
2022/10/11 03:40:54;;;;;;;18.88;10.05;;;;;;;12.44;100.00;96778.56;5080192;28;20066;-77
2022/10/11 03:43:21;;;;;;;16.80;8.70;;;;;;;12.46;100.00;96782.56;5091169;28;20071;-77
2022/10/11 03:45:47;;;;;;;20.67;9.82;;;;;;;12.45;100.00;96780.97;5076080;28;20048;-77
2022/10/11 03:48:14;;;;;;;18.55;9.63;;;;;;;12.43;100.00;96783.22;5091866;28;20071;-77
2022/10/11 03:50:41;;;;;;;21.02;10.63;;;;;;;12.47;100.00;96788.84;5089378;28;20132;-78
2022/10/11 03:53:07;;;;;;;16.52;9.82;;;;;;;12.48;100.00;96795.94;5090049;28;20047;-77
2022/10/11 03:55:38;;;;;;;17.58;10.20;;;;;;;12.47;100.00;96795.09;5093237;28;20075;-77
2022/10/11 03:58:04;;;;;;;19.08;9.50;;;;;;;12.48;100.00;96798.66;5092295;28;20059;-74
2022/10/11 04:00:32;;;;;;;16.55;9.95;;;;;;;12.47;100.00;96789.63;5096491;28;20585;-76
2022/10/11 04:02:59;;;;;;;15.20;8.95;;;;;;;12.51;100.00;96804.28;5099691;28;20525;-76
2022/10/11 04:05:26;;;;;;;13.10;9.15;;;;;;;12.53;100.00;96803.97;5098047;28;20033;-77
2022/10/11 04:07:52;;;;;;;21.23;10.48;;;;;;;12.51;100.00;96814.41;5096614;28;20048;-76
2022/10/11 04:10:19;;;;;;;19.98;11.98;;;;;;;12.37;100.00;96811.00;5095920;28;20040;-76
2022/10/11 04:12:47;;;;;;;22.85;11.63;;;;;;;12.12;100.00;96816.09;5090632;28;20051;-75
2022/10/11 04:15:13;;;;;;;24.35;13.27;;;;;;;12.04;100.00;96813.31;5077494;28;20064;-77
2022/10/11 04:17:40;;;;;;;23.67;12.63;;;;;;;11.92;100.00;96822.09;5096491;28;20044;-78
2022/10/11 04:20:08;;;;;;;29.33;13.98;;;;;;;11.99;100.00;96823.25;5095453;28;20047;-76
2022/10/11 04:22:34;;;;;;;23.73;13.20;;;;;;;12.02;100.00;96816.38;5076279;28;20045;-77
2022/10/11 04:25:01;;;;;;;28.77;12.57;;;;;;;11.92;100.00;96816.66;5076645;28;20052;-77
2022/10/11 04:27:27;;;;;;;23.88;12.18;;;;;;;12.05;100.00;96826.63;5075303;28;20115;-76
2022/10/11 04:29:56;;;;;;;24.02;11.68;;;;;;;12.15;100.00;96820.09;5076383;28;20059;-77
2022/10/11 04:32:22;;;;;;;22.10;11.73;;;;;;;12.17;100.00;96818.66;5076569;28;20052;-78
2022/10/11 04:34:50;;;;;;;22.77;11.85;;;;;;;12.15;100.00;96820.91;5076974;28;20048;-78
2022/10/11 04:37:19;;;;;;;18.27;10.57;;;;;;;12.26;100.00;96821.41;5079328;28;20445;-78
2022/10/11 04:39:46;;;;;;;18.25;10.07;;;;;;;12.31;100.00;96812.25;5098886;28;20449;-76
2022/10/11 04:42:12;;;;;;;21.45;12.52;;;;;;;12.34;100.00;96814.38;5079392;28;20053;-77
2022/10/11 04:44:39;;;;;;;21.45;12.13;;;;;;;12.40;100.00;96815.81;5077034;28;20048;-76
2022/10/11 04:47:07;;;;;;;18.92;11.40;;;;;;;12.47;100.00;96810.69;5088093;28;20662;-78
2022/10/11 04:49:33;;;;;;;16.20;11.18;;;;;;;12.49;100.00;96824.84;5080912;28;20049;-76
2022/10/11 04:52:00;;;;;;;20.40;11.02;;;;;;;12.53;100.00;96820.38;5097695;28;20044;-77
2022/10/11 04:54:27;;;;;;;16.65;10.77;;;;;;;12.52;100.00;96813.28;5081035;28;20044;-77
2022/10/11 04:56:53;;;;;;;17.55;11.80;;;;;;;12.51;100.00;96814.41;5081424;28;20051;-76
2022/10/11 04:59:20;;;;;;;16.75;9.90;;;;;;;12.56;100.00;96813.44;5080343;28;20041;-77
2022/10/11 05:01:46;;;;;;;22.20;10.90;;;;;;;12.58;100.00;96827.56;5081249;28;20310;-76
2022/10/11 05:04:14;;;;;;;17.77;10.20;;;;;;;12.62;100.00;96823.88;5097558;28;20051;-76
2022/10/11 05:06:41;;;;;;;20.33;10.10;;;;;;;12.61;100.00;96827.75;5082120;28;20048;-76
2022/10/11 05:09:07;;;;;;;19.13;10.80;;;;;;;12.58;100.00;96831.16;5097516;28;20048;-76
2022/10/11 05:11:34;;;;;;;16.50;9.80;;;;;;;12.60;100.00;96828.09;5100801;28;20066;-76
2022/10/11 05:14:00;;;;;;;17.33;10.07;;;;;;;12.61;100.00;96833.22;5097360;28;20087;-76
2022/10/11 05:16:29;;;;;;;15.35;9.75;;;;;;;12.65;100.00;96825.19;5096800;28;20048;-78
2022/10/11 05:18:56;;;;;;;18.08;10.15;;;;;;;12.69;100.00;96828.91;5101190;28;20044;-79
2022/10/11 05:21:25;;;;;;;21.00;11.07;;;;;;;12.68;100.00;96825.34;5100177;28;20064;-79
2022/10/11 05:23:54;;;;;;;19.75;10.35;;;;;;;12.70;100.00;96825.84;5102752;28;20043;-80
2022/10/11 05:26:21;;;;;;;18.65;10.73;;;;;;;12.72;100.00;96829.06;5082664;28;20072;-80
2022/10/11 05:28:48;;;;;;;21.88;10.57;;;;;;;12.73;100.00;96825.19;5105069;28;20407;-79
2022/10/11 05:31:15;;;;;;;16.00;9.75;;;;;;;12.73;100.00;96830.66;5094153;28;20048;-80
2022/10/11 05:34:55;;;;;;;13.88;10.30;;;;;;;12.78;100.00;96827.75;5142966;27;20375;-83
2022/10/11 05:37:21;;;;;;;12.88;8.88;;;;;;;12.82;100.00;96827.13;5072103;22;20052;-80
2022/10/11 05:39:48;;;;;;;15.00;9.57;;;;;;;12.83;100.00;96829.53;5060005;28;20389;-81
2022/10/11 05:42:15;;;;;;;14.50;9.73;;;;;;;12.82;100.00;96835.34;5059587;28;20044;-85
2022/10/11 05:44:44;;;;;;;15.23;9.70;;;;;;;12.83;100.00;96828.72;5058854;28;20069;-81
2022/10/11 05:47:10;;;;;;;14.80;9.57;;;;;;;12.78;100.00;96838.69;5059893;28;20055;-81
2022/10/11 05:49:41;;;;;;;16.88;9.23;;;;;;;12.86;100.00;96839.03;5060395;28;20049;-81
2022/10/11 05:52:09;;;;;;;17.90;9.40;;;;;;;12.87;100.00;96848.84;5058230;28;20051;-81
2022/10/11 05:54:38;;;;;;;11.18;9.07;;;;;;;12.88;100.00;96848.50;5060144;28;20492;-82
2022/10/11 05:57:05;;;;;;;15.15;9.35;;;;;;;12.89;100.00;96854.78;5058475;28;20047;-82
2022/10/11 05:59:31;;;;;;;14.55;9.02;;;;;;;12.90;100.00;96856.41;5058507;28;20041;-82
2022/10/11 06:01:59;;;;;;;16.95;9.15;;;;;;;12.91;100.00;96852.56;5057894;28;20045;-82
2022/10/11 06:04:26;;;;;;;15.82;9.43;;;;;;;12.88;100.00;96859.44;5059705;28;20100;-81
2022/10/11 06:06:53;;;;;;;11.55;7.95;;;;;;;12.93;100.00;96855.75;5059184;28;20048;-81
2022/10/11 06:09:26;;;;;;;16.20;9.80;;;;;;;12.97;100.00;96851.25;5057379;28;20459;-81
2022/10/11 06:11:52;;;;;;;14.55;8.73;;;;;;;13.01;100.00;96853.03;5057864;28;20076;-81
2022/10/11 06:14:19;;;;;;;15.75;9.52;;;;;;;13.04;100.00;96857.03;5046702;28;20053;-81
2022/10/11 06:16:48;;;;;;;14.93;9.13;;;;;;;13.09;100.00;96864.28;5049285;28;20050;-78
2022/10/11 06:19:15;;;;;;;14.80;8.80;;;;;;;13.12;100.00;96869.91;5036636;28;20092;-81
2022/10/11 06:21:41;;;;;;;15.18;8.43;;;;;;;13.13;100.00;96868.78;5038214;28;20050;-81
2022/10/11 06:24:08;;;;;;;12.48;8.90;;;;;;;13.15;100.00;96869.25;5036895;28;20046;-81
2022/10/11 06:26:38;;;;;;;13.95;9.13;;;;;;;13.14;100.00;96878.59;5038443;28;20045;-80
2022/10/11 06:29:05;;;;;;;10.73;8.25;;;;;;;13.17;100.00;96877.97;5038210;28;20045;-80
2022/10/11 06:31:32;;;;;;;13.88;8.85;;;;;;;13.20;100.00;96877.31;5038512;28;20045;-80
2022/10/11 06:33:59;;;;;;;11.27;8.32;;;;;;;13.21;100.00;96880.88;5037186;28;20046;-80
2022/10/11 06:36:26;;;;;;;15.63;9.90;;;;;;;13.23;100.00;96882.19;5036263;28;20040;-81
2022/10/11 06:38:53;;;;;;;11.38;8.23;;;;;;;13.26;100.00;96892.47;5038901;28;20050;-80
2022/10/11 06:41:23;;;;;;;11.40;8.40;;;;;;;13.29;100.00;96880.88;5037096;28;20053;-80
2022/10/11 06:43:53;;;;;;;13.88;8.68;;;;;;;13.31;100.00;96889.59;5040008;28;20053;-80
2022/10/11 06:46:21;;;;;;;16.30;8.90;;;;;;;13.36;100.00;96891.31;5031585;28;20116;-81
2022/10/11 06:48:48;;;;;;;18.75;9.27;;;;;;;13.37;100.00;96892.16;5045942;28;20049;-80
2022/10/11 06:51:18;;;;;;;15.27;10.02;;;;;;;13.38;100.00;96893.75;5044383;28;20065;-78
2022/10/11 06:53:49;;;;;;;13.73;8.70;;;;;;;13.39;100.00;96900.84;5043997;28;20049;-81
2022/10/11 06:56:15;;;;;;;15.80;9.55;;;;;;;13.42;100.00;96901.00;5044777;28;20056;-81
2022/10/11 06:58:43;;;;;;;21.08;10.10;;;;;;;13.41;100.00;96909.50;5045752;28;20497;-80
2022/10/11 07:01:15;;;;;;;12.82;8.50;;;;;;;13.41;100.00;96914.97;5044552;28;20060;-80
2022/10/11 07:03:41;;;;;;;13.18;8.75;;;;;;;13.45;100.00;96907.75;5043167;28;20068;-80
2022/10/11 07:06:10;;;;;;;15.88;10.07;;;;;;;13.47;100.00;96903.56;5044885;28;20045;-80
2022/10/11 07:08:37;;;;;;;14.55;9.88;;;;;;;13.52;100.00;96910.78;5045657;28;20051;-79
2022/10/11 07:11:06;;;;;;;15.77;10.05;;;;;;;13.56;100.00;96911.75;5044486;28;20049;-79
2022/10/11 07:13:32;;;;;;;16.15;9.63;;;;;;;13.54;100.00;96914.03;5044607;28;20129;-81
2022/10/11 07:16:00;;;;;;;17.23;9.68;;;;;;;13.58;100.00;96915.00;5038706;28;20501;-80
2022/10/11 07:18:30;;;;;;;16.23;9.73;;;;;;;13.58;100.00;96920.47;5005229;28;20046;-81
2022/10/11 07:20:56;;;;;;;14.95;9.75;;;;;;;13.55;100.00;96919.16;5006269;28;20077;-81
2022/10/11 07:23:23;;;;;;;15.18;8.93;;;;;;;13.59;100.00;96922.06;5005954;28;20046;-81
2022/10/11 07:25:53;;;;;;;15.05;9.88;;;;;;;13.62;100.00;96921.41;5006686;28;20042;-80
2022/10/11 07:28:20;;;;;;;15.75;9.98;;;;;;;13.61;100.00;96930.75;5005012;28;20046;-81
2022/10/11 07:30:46;;;;;;;16.20;11.10;;;;;;;13.69;100.00;96921.75;5005238;28;20068;-81
2022/10/11 07:33:13;;;;;;;16.40;10.75;;;;;;;13.70;100.00;96928.81;5005908;28;20401;-80
2022/10/11 07:35:41;;;;;;;16.25;10.40;;;;;;;13.66;100.00;96936.06;5006734;28;20064;-80
2022/10/11 07:38:08;;;;;;;14.60;9.50;;;;;;;13.72;100.00;96926.53;5005115;28;20065;-79
2022/10/11 07:40:41;;;;;;;15.98;9.73;;;;;;;13.75;100.00;96936.84;5005820;28;20058;-79
2022/10/11 07:43:08;;;;;;;12.32;8.15;;;;;;;13.81;100.00;96934.75;5007629;28;20105;-81
2022/10/11 07:45:37;;;;;;;15.55;9.73;;;;;;;13.86;100.00;96931.03;5007278;28;20038;-80
2022/10/11 07:48:04;;;;;;;16.23;8.95;;;;;;;13.90;100.00;96938.28;5025152;28;20128;-80
2022/10/11 07:50:34;;;;;;;16.73;10.13;;;;;;;13.83;100.00;96933.31;5030166;28;20065;-81
2022/10/11 07:53:03;;;;;;;15.23;8.25;;;;;;;13.93;100.00;96939.56;5029765;28;20045;-79
2022/10/11 07:55:30;;;;;;;12.10;7.97;;;;;;;14.04;100.00;96938.91;5030730;28;20083;-83
2022/10/11 07:57:57;;;;;;;16.95;9.57;;;;;;;14.23;100.00;96941.25;5029475;28;20054;-80
2022/10/11 08:00:26;;;;;;;15.82;9.00;;;;;;;14.39;100.00;96943.47;5029922;28;20041;-79
2022/10/11 08:02:53;;;;;;;17.63;9.68;;;;;;;14.51;100.00;96936.22;5029512;28;20046;-80
2022/10/11 08:05:19;;;;;;;19.58;9.95;;;;;;;14.34;100.00;96937.03;5029103;28;20044;-81
2022/10/11 08:07:47;;;;;;;13.50;8.80;;;;;;;14.47;100.00;96939.91;5027875;28;20046;-80
2022/10/11 08:10:16;;;;;;;14.23;9.23;;;;;;;14.58;100.00;96941.97;5026940;28;20046;-80
2022/10/11 08:12:43;;;;;;;16.05;8.98;;;;;;;14.68;100.00;96938.06;5028650;28;20076;-81
2022/10/11 08:15:10;;;;;;;15.05;9.63;;;;;;;14.79;100.00;96942.03;5029065;28;20052;-82
2022/10/11 08:17:37;;;;;;;15.98;9.40;;;;;;;14.85;100.00;96940.69;5030561;28;20553;-81
2022/10/11 08:20:04;;;;;;;15.23;9.88;;;;;;;15.00;100.00;96938.53;5029272;28;20064;-80
2022/10/11 08:22:32;;;;;;;13.45;9.02;;;;;;;14.80;95.01;96940.88;5029508;28;20049;-83
2022/10/11 08:24:58;;;;;;;13.88;8.55;;;;;;;14.95;95.49;96945.00;5029209;28;20046;-80
2022/10/11 08:27:26;;;;;;;15.75;8.05;;;;;;;14.87;95.47;96945.84;5028636;28;20070;-83
2022/10/11 08:29:53;;;;;;;12.38;6.68;;;;;;;14.99;94.49;96945.16;5030435;28;20073;-81
2022/10/11 08:32:19;;;;;;;11.45;6.60;;;;;;;15.13;94.58;96948.44;5029580;28;20107;-81
2022/10/11 08:34:46;;;;;;;11.77;6.07;;;;;;;15.16;94.41;96945.03;5029040;28;20053;-82
2022/10/11 08:37:12;;;;;;;12.25;7.20;;;;;;;15.01;92.88;96951.91;5028696;28;20046;-81
2022/10/11 08:39:39;;;;;;;12.80;6.32;;;;;;;14.95;92.31;96949.69;5028548;28;20045;-81
2022/10/11 08:42:13;;;;;;;8.77;6.07;;;;;;;15.02;92.66;96950.75;5027932;28;20119;-81
2022/10/11 08:44:44;;;;;;;13.88;6.80;;;;;;;15.06;93.31;96957.19;5028809;28;20105;-82
2022/10/11 08:47:18;;;;;;;11.35;6.60;;;;;;;15.11;93.52;96959.75;5031018;28;20113;-82
2022/10/11 08:49:47;;;;;;;14.57;6.78;;;;;;;15.14;94.51;96963.78;5027871;28;20105;-79
2022/10/11 08:52:21;;;;;;;11.77;6.45;;;;;;;15.21;94.73;96957.75;5026952;28;20045;-81
2022/10/11 08:54:53;;;;;;;13.10;6.47;;;;;;;15.21;94.34;96952.28;5026274;28;20050;-80
2022/10/11 08:57:22;;;;;;;16.10;7.63;;;;;;;15.21;93.53;96958.56;5025996;28;20061;-82
2022/10/11 08:59:55;;;;;;;13.85;7.30;;;;;;;15.18;93.47;96961.94;5024194;28;20041;-81
2022/10/11 09:02:35;;;;;;;12.75;7.25;;;;;;;15.17;93.63;96965.03;5026474;28;20050;-80
2022/10/11 09:05:03;;;;;;;23.33;8.82;;;;;;;15.10;93.82;96965.56;5027004;28;20054;-79
2022/10/11 09:07:44;;;;;;;13.13;7.47;;;;;;;15.24;94.81;96965.31;5028256;28;20056;-82
2022/10/11 09:10:40;;;;;;;15.90;8.50;;;;;;;15.07;93.09;96963.47;5028174;28;20049;-81
2022/10/11 09:13:17;;;;;;;15.07;8.30;;;;;;;15.09;93.22;96967.50;5028584;28;20105;-81
2022/10/11 09:15:53;;;;;;;15.95;8.35;;;;;;;15.07;93.45;96968.97;5030750;28;20117;-80
2022/10/11 09:18:39;;;;;;;19.98;8.45;;;;;;;14.82;92.55;96963.28;4990029;28;20058;-80
2022/10/11 09:21:16;;;;;;;16.40;8.55;;;;;;;14.92;93.59;96961.31;5008001;28;20042;-82
2022/10/11 09:24:00;;;;;;;12.63;8.95;;;;;;;14.88;94.18;96961.97;5008959;28;20133;-80
2022/10/11 09:26:28;;;;;;;17.85;8.07;;;;;;;14.91;94.38;96966.00;5009149;28;20081;-81
2022/10/11 09:29:06;;;;;;;13.98;8.32;;;;;;;14.90;95.07;96974.56;5008958;28;20046;-80
2022/10/11 09:31:34;;;;;;;16.55;11.38;;;;;;;14.91;95.75;96968.72;5008988;28;20101;-80
2022/10/11 09:34:10;;;;;;;21.55;12.32;;;;;;;14.90;96.27;96967.13;5008719;28;20085;-80
2022/10/11 09:36:44;;;;;;;25.30;13.38;;;;;;;14.92;97.07;96961.31;5001635;28;20097;-81
2022/10/11 09:39:27;;;;;;;25.48;15.55;;;;;;;14.88;96.62;96959.25;5007630;28;20120;-79
2022/10/11 09:41:58;;;;;;;23.45;13.45;;;;;;;14.96;96.77;96967.75;5008342;28;20090;-80
2022/10/11 09:44:27;;;;;;;17.48;11.45;;;;;;;15.00;97.25;96963.22;5007105;28;20129;-80
2022/10/11 09:46:57;;;;;;;18.83;11.32;;;;;;;15.02;97.74;96960.94;5020006;28;20437;-82
2022/10/11 09:49:31;;;;;;;17.65;10.40;;;;;;;15.02;97.37;96958.19;5025774;28;20104;-80
2022/10/11 09:52:02;;;;;;;16.02;8.98;;;;;;;14.98;95.48;96959.97;5027158;28;20052;-80
2022/10/11 09:54:40;;;;;;;13.02;7.47;;;;;;;15.02;95.21;96955.44;5020673;28;20052;-81
2022/10/11 09:57:17;;;;;;;12.40;7.80;;;;;;;15.10;96.13;96954.59;5017049;28;20050;-78
2022/10/11 09:59:43;;;;;;;13.95;7.60;;;;;;;15.13;96.40;96953.91;5018054;28;20520;-80
2022/10/11 10:02:23;;;;;;;15.10;7.68;;;;;;;15.02;94.98;96956.25;5015756;28;20124;-81
2022/10/11 10:05:18;;;;;;;15.02;7.10;;;;;;;14.94;92.33;96956.31;5017489;28;20050;-78
2022/10/11 10:08:21;;;;;;;16.95;8.23;;;;;;;14.91;92.34;96954.22;5011770;28;20050;-79
2022/10/11 10:10:57;;;;;;;14.20;8.27;;;;;;;15.20;93.29;96959.69;5019474;28;20046;-80
2022/10/11 10:13:27;;;;;;;16.42;7.90;;;;;;;15.17;90.32;96957.59;5018356;28;20046;-80
2022/10/11 10:15:57;;;;;;;15.10;8.30;;;;;;;15.40;91.37;96953.41;5020317;28;20524;-80
2022/10/11 10:18:31;;;;;;;13.75;7.90;;;;;;;15.53;91.80;96956.22;5018359;28;20041;-80
2022/10/11 10:20:59;;;;;;;11.50;7.47;;;;;;;15.59;91.80;96957.63;5022965;28;20049;-81
2022/10/11 10:23:28;;;;;;;15.23;7.80;;;;;;;15.53;91.37;96956.22;5022572;28;20038;-78
2022/10/11 10:26:11;;;;;;;13.10;6.68;;;;;;;15.60;91.48;96959.22;5024328;28;20056;-78
2022/10/11 10:28:38;;;;;;;15.63;8.45;;;;;;;15.57;92.08;96955.22;5023052;28;20096;-81
2022/10/11 10:31:05;;;;;;;13.95;7.70;;;;;;;15.64;91.41;96954.69;5022630;28;20524;-79
2022/10/11 10:33:34;;;;;;;13.60;7.28;;;;;;;15.64;90.02;96954.69;5022431;28;20134;-79
2022/10/11 10:36:05;;;;;;;12.70;7.30;;;;;;;15.71;89.69;96954.94;5023251;28;20053;-79
2022/10/11 10:38:36;;;;;;;15.05;6.72;;;;;;;15.69;89.94;96960.00;5022330;28;20038;-80
2022/10/11 10:41:05;;;;;;;13.50;7.13;;;;;;;15.74;89.93;96959.78;5022812;28;20056;-79
2022/10/11 10:43:36;;;;;;;10.13;6.13;;;;;;;15.79;90.41;96962.31;5022410;28;20042;-79
2022/10/11 10:46:18;;;;;;;14.27;7.53;;;;;;;15.80;88.26;96969.41;5024832;28;20045;-78
2022/10/11 10:48:54;;;;;;;15.27;6.88;;;;;;;15.78;88.04;96966.22;5022247;28;20046;-79
2022/10/11 10:51:33;;;;;;;13.57;7.90;;;;;;;15.77;88.00;96964.63;5020771;28;20064;-80
2022/10/11 10:54:10;;;;;;;14.85;7.70;;;;;;;15.79;88.14;96962.31;5021912;28;20391;-79
2022/10/11 10:56:45;;;;;;;18.55;8.82;;;;;;;15.88;89.18;96954.03;5023124;28;20382;-79
2022/10/11 10:59:35;;;;;;;15.43;9.07;;;;;;;15.85;89.06;96958.22;5023654;28;20440;-78
2022/10/11 11:02:14;;;;;;;12.75;8.02;;;;;;;15.88;88.85;96957.56;5023516;28;20072;-79
2022/10/11 11:04:50;;;;;;;12.68;7.78;;;;;;;15.99;89.22;96948.91;5023103;28;20045;-79
2022/10/11 11:07:24;;;;;;;13.23;7.25;;;;;;;15.99;88.89;96949.72;5019594;28;20046;-80
2022/10/11 11:09:58;;;;;;;16.27;7.28;;;;;;;16.01;88.61;96949.34;5019297;28;20133;-79
2022/10/11 11:12:39;;;;;;;17.55;6.65;;;;;;;16.10;88.64;96948.13;5019265;28;20046;-79
2022/10/11 11:15:12;;;;;;;10.38;6.60;;;;;;;16.20;87.47;96944.16;5019875;28;20049;-79
2022/10/11 11:17:51;;;;;;;13.23;5.57;;;;;;;16.30;87.03;96945.66;5023637;28;20129;-80
2022/10/11 11:20:30;;;;;;;16.60;7.57;;;;;;;16.32;83.99;96946.13;5002753;28;20050;-79
2022/10/11 11:23:06;;;;;;;11.80;6.60;;;;;;;16.44;84.19;96948.88;5022596;28;20132;-78
2022/10/11 11:25:43;;;;;;;10.98;6.20;;;;;;;16.54;85.56;96947.63;5025087;28;20045;-80
2022/10/11 11:28:33;;;;;;;13.45;6.95;;;;;;;16.50;85.65;96946.75;5023350;28;20054;-80
2022/10/11 11:31:10;;;;;;;18.13;7.43;;;;;;;16.54;84.56;96942.13;5022284;28;20046;-80
2022/10/11 11:33:49;;;;;;;16.15;6.88;;;;;;;16.61;84.28;96943.19;5022890;28;20057;-80